Khanom, Thailand

12:30 PM ICT on May 25, 2015 (GMT +0700)
SamuiWebCam.com @ The Jungle Club, Koh Samui, Thailand | | Change Station
CLOSE
Current Station
Personal Weather Station
Location: Thailand,
Elevation: 492 ft
Nearby Weather Stations

Elev 492 ft 9.50 °N, 100.05 °E | Updated 16 seconds ago

Mostly Cloudy
Mostly Cloudy
92.3 °F
Feels Like 100 °F
N
10.5
Wind Variable Wind from SE
Gusts 12.3 mph

Today
High -- | Low -- °F
--% Chance of Precip.
Yesterday
High -- | Low -- °F
Precip. -- in
5:59 AM 6:35 PM
Waxing Crescent, 45% visible
Pressure 29.80 in
Visibility 6.2 miles
Clouds Few 2000 ft
Mostly Cloudy 30000 ft
Heat Index 100 °F
Dew Point 72 °F
Humidity 52%
Rainfall 0.00 in
Snow Depth Not available.
UV 9.0 out of 12
Pollen Not available.
Air Quality Not available.
Flu Activity Not available.
METAR VTSM 250500Z 27004KT 9999 FEW020 BKN300 33/25 Q1009 A2981

More Conditions Fewer Conditions

Pressure 29.80 in
Visibility 6.2 miles
Clouds Few 2000 ft
Mostly Cloudy 30000 ft
Heat Index 100 °F
Dew Point 72 °F
Humidity 52%
Rainfall 0.00 in
Snow Depth Not available.
UV 9.0 out of 12
Pollen Not available.
Air Quality Not available.
Flu Activity Not available.
METAR VTSM 250500Z 27004KT 9999 FEW020 BKN300 33/25 Q1009 A2981

More Conditions Fewer Conditions

10-Day Weather Forecast

Almanac

Astronomy

May. 25, 2015 Rise Set
Actual Time
Civil Twilight
Nautical Twilight
Astronomical Twilight
Moon
Length of Visible Light
Length of Day
Tomorrow will be .
, % of the Moon is Illuminated

Today's Extremes

Country Highs Country Lows

Community

WunderPhotos

Upload Photos

1,823,956 photos uploaded!

WunderBlogs® & News

Nearby

Air Quality

  Air Quality AQ Index Pollutant
Not available.

Snow Depth

Station Depth Elevation

Earthquake Activity

City Distance Mag. Time & Date
Minimum magnitude displayed is 2.5.

Coastal Water Temperatures

Place Temperature

Stations

Nearby Weather Stations

Station Location Temp. Windchill Dew Point Humidity Wind Precip. Elev Updated Type